sensor_id;sensor_type;location;lat;lon;timestamp;temperature;humidity
4962;DHT22;2496;52.468;13.342;2022-07-04T00:01:58;22.00;92.90
4962;DHT22;2496;52.468;13.342;2022-07-04T00:04:26;22.00;92.90
4962;DHT22;2496;52.468;13.342;2022-07-04T00:06:53;22.00;93.00
4962;DHT22;2496;52.468;13.342;2022-07-04T00:09:22;22.10;93.20
4962;DHT22;2496;52.468;13.342;2022-07-04T00:11:50;22.00;93.20
4962;DHT22;2496;52.468;13.342;2022-07-04T00:14:17;21.90;93.40
4962;DHT22;2496;52.468;13.342;2022-07-04T00:16:44;21.80;93.60
4962;DHT22;2496;52.468;13.342;2022-07-04T00:19:11;21.70;93.80
4962;DHT22;2496;52.468;13.342;2022-07-04T00:21:38;21.60;94.00
4962;DHT22;2496;52.468;13.342;2022-07-04T00:24:06;21.60;94.10
4962;DHT22;2496;52.468;13.342;2022-07-04T00:26:34;21.60;94.20
4962;DHT22;2496;52.468;13.342;2022-07-04T00:29:02;21.50;94.30
4962;DHT22;2496;52.468;13.342;2022-07-04T00:31:29;21.50;94.50
4962;DHT22;2496;52.468;13.342;2022-07-04T00:33:57;21.40;94.60
4962;DHT22;2496;52.468;13.342;2022-07-04T00:36:24;21.40;94.80
4962;DHT22;2496;52.468;13.342;2022-07-04T00:38:52;21.30;94.90
4962;DHT22;2496;52.468;13.342;2022-07-04T00:41:19;21.30;95.10
4962;DHT22;2496;52.468;13.342;2022-07-04T00:44:01;21.30;95.20
4962;DHT22;2496;52.468;13.342;2022-07-04T00:46:29;21.30;95.30
4962;DHT22;2496;52.468;13.342;2022-07-04T00:48:56;21.30;95.30
4962;DHT22;2496;52.468;13.342;2022-07-04T00:51:24;21.40;95.20
4962;DHT22;2496;52.468;13.342;2022-07-04T00:53:53;21.50;95.20
4962;DHT22;2496;52.468;13.342;2022-07-04T00:56:21;21.50;95.10
4962;DHT22;2496;52.468;13.342;2022-07-04T00:58:50;21.40;95.30
4962;DHT22;2496;52.468;13.342;2022-07-04T01:01:20;21.30;95.60
4962;DHT22;2496;52.468;13.342;2022-07-04T01:03:47;21.20;95.70
4962;DHT22;2496;52.468;13.342;2022-07-04T01:06:15;21.20;95.90
4962;DHT22;2496;52.468;13.342;2022-07-04T01:08:45;21.20;96.00
4962;DHT22;2496;52.468;13.342;2022-07-04T01:11:13;21.10;96.10
4962;DHT22;2496;52.468;13.342;2022-07-04T01:13:41;21.10;96.30
4962;DHT22;2496;52.468;13.342;2022-07-04T01:16:09;21.00;96.40
4962;DHT22;2496;52.468;13.342;2022-07-04T01:18:38;21.00;96.70
4962;DHT22;2496;52.468;13.342;2022-07-04T01:21:07;20.90;96.90
4962;DHT22;2496;52.468;13.342;2022-07-04T01:23:37;20.80;97.10
4962;DHT22;2496;52.468;13.342;2022-07-04T01:26:04;20.80;97.30
4962;DHT22;2496;52.468;13.342;2022-07-04T01:28:31;20.80;97.50
4962;DHT22;2496;52.468;13.342;2022-07-04T01:30:58;20.80;97.70
4962;DHT22;2496;52.468;13.342;2022-07-04T01:33:25;20.70;97.90
4962;DHT22;2496;52.468;13.342;2022-07-04T01:35:52;20.70;98.10
4962;DHT22;2496;52.468;13.342;2022-07-04T01:38:21;20.70;98.30
4962;DHT22;2496;52.468;13.342;2022-07-04T01:40:48;20.60;98.50
4962;DHT22;2496;52.468;13.342;2022-07-04T01:43:15;20.50;98.70
4962;DHT22;2496;52.468;13.342;2022-07-04T01:45:42;20.50;99.00
4962;DHT22;2496;52.468;13.342;2022-07-04T01:48:11;20.40;99.40
4962;DHT22;2496;52.468;13.342;2022-07-04T01:50:38;20.30;99.70
4962;DHT22;2496;52.468;13.342;2022-07-04T01:53:06;20.20;99.90
4962;DHT22;2496;52.468;13.342;2022-07-04T01:55:34;20.20;99.90
4962;DHT22;2496;52.468;13.342;2022-07-04T01:58:01;20.20;99.90
4962;DHT22;2496;52.468;13.342;2022-07-04T02:00:28;20.10;99.90
4962;DHT22;2496;52.468;13.342;2022-07-04T02:03:13;20.10;99.90
4962;DHT22;2496;52.468;13.342;2022-07-04T02:05:40;20.10;99.90
4962;DHT22;2496;52.468;13.342;2022-07-04T02:08:07;20.00;99.90
4962;DHT22;2496;52.468;13.342;2022-07-04T02:10:37;20.00;99.90
4962;DHT22;2496;52.468;13.342;2022-07-04T02:13:04;19.90;99.90
4962;DHT22;2496;52.468;13.342;2022-07-04T02:15:32;19.80;99.90
4962;DHT22;2496;52.468;13.342;2022-07-04T02:17:59;19.70;99.90
4962;DHT22;2496;52.468;13.342;2022-07-04T02:20:27;19.60;99.90
4962;DHT22;2496;52.468;13.342;2022-07-04T02:22:54;19.50;99.90
4962;DHT22;2496;52.468;13.342;2022-07-04T02:25:21;19.50;99.90
4962;DHT22;2496;52.468;13.342;2022-07-04T02:27:50;19.40;99.90
4962;DHT22;2496;52.468;13.342;2022-07-04T02:30:16;19.40;99.90
4962;DHT22;2496;52.468;13.342;2022-07-04T02:35:11;19.30;99.90
4962;DHT22;2496;52.468;13.342;2022-07-04T02:37:39;19.20;99.90
4962;DHT22;2496;52.468;13.342;2022-07-04T02:40:07;19.10;99.90
4962;DHT22;2496;52.468;13.342;2022-07-04T02:42:35;19.10;99.90
4962;DHT22;2496;52.468;13.342;2022-07-04T02:45:04;19.10;99.90
4962;DHT22;2496;52.468;13.342;2022-07-04T02:47:31;19.10;99.90
4962;DHT22;2496;52.468;13.342;2022-07-04T02:49:58;19.10;99.90
4962;DHT22;2496;52.468;13.342;2022-07-04T02:52:27;19.00;99.90
4962;DHT22;2496;52.468;13.342;2022-07-04T02:54:54;19.00;99.90
4962;DHT22;2496;52.468;13.342;2022-07-04T02:57:21;18.90;99.90
4962;DHT22;2496;52.468;13.342;2022-07-04T02:59:48;18.90;99.90
4962;DHT22;2496;52.468;13.342;2022-07-04T03:02:17;18.90;99.90
4962;DHT22;2496;52.468;13.342;2022-07-04T03:04:44;18.90;99.90
4962;DHT22;2496;52.468;13.342;2022-07-04T03:07:10;18.80;99.90
4962;DHT22;2496;52.468;13.342;2022-07-04T03:09:37;18.80;99.90
4962;DHT22;2496;52.468;13.342;2022-07-04T03:12:05;18.80;99.90
4962;DHT22;2496;52.468;13.342;2022-07-04T03:14:33;18.70;99.90
4962;DHT22;2496;52.468;13.342;2022-07-04T03:17:00;18.70;99.90
4962;DHT22;2496;52.468;13.342;2022-07-04T03:19:28;18.70;99.90
4962;DHT22;2496;52.468;13.342;2022-07-04T03:21:55;18.70;99.90
4962;DHT22;2496;52.468;13.342;2022-07-04T03:24:22;18.70;99.90
4962;DHT22;2496;52.468;13.342;2022-07-04T03:26:49;18.70;99.90
4962;DHT22;2496;52.468;13.342;2022-07-04T03:29:16;18.70;99.90
4962;DHT22;2496;52.468;13.342;2022-07-04T03:31:43;18.70;99.90
4962;DHT22;2496;52.468;13.342;2022-07-04T03:34:10;18.70;99.90
4962;DHT22;2496;52.468;13.342;2022-07-04T03:36:39;18.70;99.90
4962;DHT22;2496;52.468;13.342;2022-07-04T03:39:05;18.80;99.90
4962;DHT22;2496;52.468;13.342;2022-07-04T03:41:32;18.80;99.90
4962;DHT22;2496;52.468;13.342;2022-07-04T03:43:59;18.80;99.90
4962;DHT22;2496;52.468;13.342;2022-07-04T03:46:26;18.80;99.90
4962;DHT22;2496;52.468;13.342;2022-07-04T03:48:53;18.80;99.90
4962;DHT22;2496;52.468;13.342;2022-07-04T03:51:21;18.80;99.90
4962;DHT22;2496;52.468;13.342;2022-07-04T03:53:50;18.90;99.90
4962;DHT22;2496;52.468;13.342;2022-07-04T03:56:17;18.90;99.90
4962;DHT22;2496;52.468;13.342;2022-07-04T03:58:44;19.00;99.90
4962;DHT22;2496;52.468;13.342;2022-07-04T04:01:14;19.10;99.90
4962;DHT22;2496;52.468;13.342;2022-07-04T04:03:42;19.20;99.90
4962;DHT22;2496;52.468;13.342;2022-07-04T04:06:26;19.20;99.90
4962;DHT22;2496;52.468;13.342;2022-07-04T04:08:54;19.20;99.90
4962;DHT22;2496;52.468;13.342;2022-07-04T04:11:22;19.20;99.90
4962;DHT22;2496;52.468;13.342;2022-07-04T04:13:49;19.30;99.90
4962;DHT22;2496;52.468;13.342;2022-07-04T04:16:16;19.30;99.90
4962;DHT22;2496;52.468;13.342;2022-07-04T04:18:43;19.30;99.90
4962;DHT22;2496;52.468;13.342;2022-07-04T04:21:10;19.40;99.90
4962;DHT22;2496;52.468;13.342;2022-07-04T04:23:37;19.40;99.90
4962;DHT22;2496;52.468;13.342;2022-07-04T04:26:05;19.40;99.90
4962;DHT22;2496;52.468;13.342;2022-07-04T04:28:32;19.40;99.90
4962;DHT22;2496;52.468;13.342;2022-07-04T04:30:59;19.40;99.90
4962;DHT22;2496;52.468;13.342;2022-07-04T04:33:26;19.40;99.90
4962;DHT22;2496;52.468;13.342;2022-07-04T04:35:53;19.40;99.90
4962;DHT22;2496;52.468;13.342;2022-07-04T04:38:20;19.30;99.90
4962;DHT22;2496;52.468;13.342;2022-07-04T04:40:46;19.20;99.90
4962;DHT22;2496;52.468;13.342;2022-07-04T04:43:15;19.10;99.90
4962;DHT22;2496;52.468;13.342;2022-07-04T04:45:42;19.10;99.90
4962;DHT22;2496;52.468;13.342;2022-07-04T04:48:09;19.10;99.90
4962;DHT22;2496;52.468;13.342;2022-07-04T04:50:36;19.10;99.90
4962;DHT22;2496;52.468;13.342;2022-07-04T04:53:03;19.20;99.90
4962;DHT22;2496;52.468;13.342;2022-07-04T04:55:30;19.20;99.90
4962;DHT22;2496;52.468;13.342;2022-07-04T04:57:57;19.20;99.90
4962;DHT22;2496;52.468;13.342;2022-07-04T05:00:26;19.30;99.90
4962;DHT22;2496;52.468;13.342;2022-07-04T05:02:54;19.30;99.90
4962;DHT22;2496;52.468;13.342;2022-07-04T05:05:22;19.30;99.90
4962;DHT22;2496;52.468;13.342;2022-07-04T05:07:50;19.30;99.90
4962;DHT22;2496;52.468;13.342;2022-07-04T05:10:17;19.50;99.90
4962;DHT22;2496;52.468;13.342;2022-07-04T05:12:44;19.60;99.90
4962;DHT22;2496;52.468;13.342;2022-07-04T05:15:11;19.70;99.90
4962;DHT22;2496;52.468;13.342;2022-07-04T05:17:40;19.80;99.90
4962;DHT22;2496;52.468;13.342;2022-07-04T05:20:08;20.00;99.90
4962;DHT22;2496;52.468;13.342;2022-07-04T05:22:35;20.00;99.90
4962;DHT22;2496;52.468;13.342;2022-07-04T05:25:03;20.10;99.90
4962;DHT22;2496;52.468;13.342;2022-07-04T05:27:30;20.20;99.90
4962;DHT22;2496;52.468;13.342;2022-07-04T05:29:58;20.20;99.90
4962;DHT22;2496;52.468;13.342;2022-07-04T05:32:26;20.20;99.90
4962;DHT22;2496;52.468;13.342;2022-07-04T05:34:55;20.20;99.90
4962;DHT22;2496;52.468;13.342;2022-07-04T05:37:23;20.20;99.90
4962;DHT22;2496;52.468;13.342;2022-07-04T05:39:51;20.20;99.90
4962;DHT22;2496;52.468;13.342;2022-07-04T05:42:19;20.00;99.90
4962;DHT22;2496;52.468;13.342;2022-07-04T05:44:46;19.90;99.90
4962;DHT22;2496;52.468;13.342;2022-07-04T05:47:14;20.00;99.90
4962;DHT22;2496;52.468;13.342;2022-07-04T05:49:42;20.10;99.90
4962;DHT22;2496;52.468;13.342;2022-07-04T05:52:10;20.30;99.90
4962;DHT22;2496;52.468;13.342;2022-07-04T05:54:37;20.40;99.90
4962;DHT22;2496;52.468;13.342;2022-07-04T05:57:04;20.40;99.90
4962;DHT22;2496;52.468;13.342;2022-07-04T05:59:31;20.40;99.90
4962;DHT22;2496;52.468;13.342;2022-07-04T06:01:58;20.40;99.90
4962;DHT22;2496;52.468;13.342;2022-07-04T06:04:25;20.50;99.90
4962;DHT22;2496;52.468;13.342;2022-07-04T06:06:52;20.60;99.90
4962;DHT22;2496;52.468;13.342;2022-07-04T06:09:21;20.70;99.90
4962;DHT22;2496;52.468;13.342;2022-07-04T06:11:48;20.80;99.90
4962;DHT22;2496;52.468;13.342;2022-07-04T06:14:15;20.90;99.90
4962;DHT22;2496;52.468;13.342;2022-07-04T06:16:42;20.80;99.90
4962;DHT22;2496;52.468;13.342;2022-07-04T06:19:10;20.80;99.90
4962;DHT22;2496;52.468;13.342;2022-07-04T06:21:37;21.00;99.90
4962;DHT22;2496;52.468;13.342;2022-07-04T06:24:04;21.10;99.90
4962;DHT22;2496;52.468;13.342;2022-07-04T06:26:32;21.20;99.90
4962;DHT22;2496;52.468;13.342;2022-07-04T06:28:59;21.10;99.90
4962;DHT22;2496;52.468;13.342;2022-07-04T06:31:26;21.00;99.90
4962;DHT22;2496;52.468;13.342;2022-07-04T06:33:53;21.10;99.90
4962;DHT22;2496;52.468;13.342;2022-07-04T06:36:37;20.90;99.90
4962;DHT22;2496;52.468;13.342;2022-07-04T06:39:04;20.80;99.90
4962;DHT22;2496;52.468;13.342;2022-07-04T06:41:32;20.80;99.90
4962;DHT22;2496;52.468;13.342;2022-07-04T06:43:59;20.80;99.90
4962;DHT22;2496;52.468;13.342;2022-07-04T06:46:26;20.90;99.90
4962;DHT22;2496;52.468;13.342;2022-07-04T06:48:53;20.80;99.90
4962;DHT22;2496;52.468;13.342;2022-07-04T06:51:20;20.70;99.90
4962;DHT22;2496;52.468;13.342;2022-07-04T06:53:50;20.60;99.90
4962;DHT22;2496;52.468;13.342;2022-07-04T06:56:17;20.60;99.90
4962;DHT22;2496;52.468;13.342;2022-07-04T06:58:46;20.50;99.90
4962;DHT22;2496;52.468;13.342;2022-07-04T07:01:14;20.50;99.90
4962;DHT22;2496;52.468;13.342;2022-07-04T07:03:41;20.60;99.90
4962;DHT22;2496;52.468;13.342;2022-07-04T07:06:08;20.80;99.90
4962;DHT22;2496;52.468;13.342;2022-07-04T07:08:35;20.90;99.90
4962;DHT22;2496;52.468;13.342;2022-07-04T07:11:02;21.10;99.90
4962;DHT22;2496;52.468;13.342;2022-07-04T07:13:39;21.30;99.90
4962;DHT22;2496;52.468;13.342;2022-07-04T07:16:08;21.50;99.90
4962;DHT22;2496;52.468;13.342;2022-07-04T07:18:36;21.40;99.90
4962;DHT22;2496;52.468;13.342;2022-07-04T07:21:03;21.30;99.90
4962;DHT22;2496;52.468;13.342;2022-07-04T07:23:30;21.30;99.90
4962;DHT22;2496;52.468;13.342;2022-07-04T07:25:57;21.50;99.90
4962;DHT22;2496;52.468;13.342;2022-07-04T07:28:24;21.50;99.90
4962;DHT22;2496;52.468;13.342;2022-07-04T07:30:53;21.70;99.90
4962;DHT22;2496;52.468;13.342;2022-07-04T07:33:22;21.90;99.90
4962;DHT22;2496;52.468;13.342;2022-07-04T07:35:49;22.20;99.90
4962;DHT22;2496;52.468;13.342;2022-07-04T07:38:16;22.40;98.30
4962;DHT22;2496;52.468;13.342;2022-07-04T07:40:43;22.40;99.10
4962;DHT22;2496;52.468;13.342;2022-07-04T07:43:10;22.50;99.00
4962;DHT22;2496;52.468;13.342;2022-07-04T07:45:36;22.60;98.90
4962;DHT22;2496;52.468;13.342;2022-07-04T07:48:04;22.60;98.90
4962;DHT22;2496;52.468;13.342;2022-07-04T07:50:32;22.60;98.60
4962;DHT22;2496;52.468;13.342;2022-07-04T07:52:59;22.60;98.20
4962;DHT22;2496;52.468;13.342;2022-07-04T07:55:26;22.50;98.30
4962;DHT22;2496;52.468;13.342;2022-07-04T07:57:53;22.40;98.20
4962;DHT22;2496;52.468;13.342;2022-07-04T08:00:20;22.40;98.40
4962;DHT22;2496;52.468;13.342;2022-07-04T08:02:47;22.40;98.30
4962;DHT22;2496;52.468;13.342;2022-07-04T08:05:33;22.20;98.10
4962;DHT22;2496;52.468;13.342;2022-07-04T08:08:00;22.10;98.60
4962;DHT22;2496;52.468;13.342;2022-07-04T08:10:27;22.20;98.40
4962;DHT22;2496;52.468;13.342;2022-07-04T08:12:54;22.30;98.30
4962;DHT22;2496;52.468;13.342;2022-07-04T08:15:21;22.50;97.90
4962;DHT22;2496;52.468;13.342;2022-07-04T08:17:48;22.60;97.80
4962;DHT22;2496;52.468;13.342;2022-07-04T08:20:15;22.80;97.50
4962;DHT22;2496;52.468;13.342;2022-07-04T08:22:44;22.80;97.30
4962;DHT22;2496;52.468;13.342;2022-07-04T08:25:11;22.70;96.60
4962;DHT22;2496;52.468;13.342;2022-07-04T08:27:39;22.70;96.50
4962;DHT22;2496;52.468;13.342;2022-07-04T08:30:07;22.90;97.00
4962;DHT22;2496;52.468;13.342;2022-07-04T08:32:34;23.40;96.70
4962;DHT22;2496;52.468;13.342;2022-07-04T08:35:02;23.90;96.00
4962;DHT22;2496;52.468;13.342;2022-07-04T08:37:29;24.30;94.00
4962;DHT22;2496;52.468;13.342;2022-07-04T08:39:58;24.40;92.90
4962;DHT22;2496;52.468;13.342;2022-07-04T08:42:26;24.10;93.10
4962;DHT22;2496;52.468;13.342;2022-07-04T08:44:54;24.10;93.70
4962;DHT22;2496;52.468;13.342;2022-07-04T08:47:23;24.40;92.90
4962;DHT22;2496;52.468;13.342;2022-07-04T08:49:55;24.40;92.90
4962;DHT22;2496;52.468;13.342;2022-07-04T08:52:33;24.30;92.70
4962;DHT22;2496;52.468;13.342;2022-07-04T08:55:04;24.80;93.00
4962;DHT22;2496;52.468;13.342;2022-07-04T08:57:50;25.30;92.10
4962;DHT22;2496;52.468;13.342;2022-07-04T09:00:36;25.80;92.20
4962;DHT22;2496;52.468;13.342;2022-07-04T09:03:04;26.00;91.60
4962;DHT22;2496;52.468;13.342;2022-07-04T09:05:32;26.30;91.00
4962;DHT22;2496;52.468;13.342;2022-07-04T09:08:00;26.50;89.60
4962;DHT22;2496;52.468;13.342;2022-07-04T09:10:29;26.60;87.60
4962;DHT22;2496;52.468;13.342;2022-07-04T09:12:57;26.70;87.90
4962;DHT22;2496;52.468;13.342;2022-07-04T09:15:25;26.90;89.00
4962;DHT22;2496;52.468;13.342;2022-07-04T09:17:52;26.90;88.20
4962;DHT22;2496;52.468;13.342;2022-07-04T09:20:22;26.90;88.10
4962;DHT22;2496;52.468;13.342;2022-07-04T09:22:52;26.60;87.80
4962;DHT22;2496;52.468;13.342;2022-07-04T09:25:20;26.10;88.70
4962;DHT22;2496;52.468;13.342;2022-07-04T09:27:50;25.90;88.70
4962;DHT22;2496;52.468;13.342;2022-07-04T09:30:19;25.40;90.00
4962;DHT22;2496;52.468;13.342;2022-07-04T09:32:48;25.50;90.00
4962;DHT22;2496;52.468;13.342;2022-07-04T09:35:18;25.80;89.50
4962;DHT22;2496;52.468;13.342;2022-07-04T09:37:47;26.20;88.20
4962;DHT22;2496;52.468;13.342;2022-07-04T09:40:25;26.30;86.40
4962;DHT22;2496;52.468;13.342;2022-07-04T09:42:55;26.10;88.60
4962;DHT22;2496;52.468;13.342;2022-07-04T09:45:23;26.10;87.20
4962;DHT22;2496;52.468;13.342;2022-07-04T09:47:53;26.30;86.00
4962;DHT22;2496;52.468;13.342;2022-07-04T09:50:22;26.60;85.60
4962;DHT22;2496;52.468;13.342;2022-07-04T09:52:52;26.60;83.50
4962;DHT22;2496;52.468;13.342;2022-07-04T09:55:22;26.30;83.70
4962;DHT22;2496;52.468;13.342;2022-07-04T09:57:49;26.00;85.60
4962;DHT22;2496;52.468;13.342;2022-07-04T10:00:20;25.70;85.60
4962;DHT22;2496;52.468;13.342;2022-07-04T10:02:47;25.40;85.70
4962;DHT22;2496;52.468;13.342;2022-07-04T10:05:33;25.20;87.10
4962;DHT22;2496;52.468;13.342;2022-07-04T10:08:00;25.40;86.70
4962;DHT22;2496;52.468;13.342;2022-07-04T10:10:30;25.30;86.60
4962;DHT22;2496;52.468;13.342;2022-07-04T10:13:00;25.20;88.20
4962;DHT22;2496;52.468;13.342;2022-07-04T10:15:30;25.40;86.50
4962;DHT22;2496;52.468;13.342;2022-07-04T10:17:57;25.60;85.10
4962;DHT22;2496;52.468;13.342;2022-07-04T10:20:25;25.70;83.60
4962;DHT22;2496;52.468;13.342;2022-07-04T10:22:52;25.70;83.80
4962;DHT22;2496;52.468;13.342;2022-07-04T10:25:19;25.70;83.20
4962;DHT22;2496;52.468;13.342;2022-07-04T10:27:46;25.70;82.60
4962;DHT22;2496;52.468;13.342;2022-07-04T10:30:16;25.60;83.30
4962;DHT22;2496;52.468;13.342;2022-07-04T10:32:46;25.50;82.50
4962;DHT22;2496;52.468;13.342;2022-07-04T10:35:14;25.20;83.40
4962;DHT22;2496;52.468;13.342;2022-07-04T10:38:03;25.10;83.40
4962;DHT22;2496;52.468;13.342;2022-07-04T10:40:42;25.10;83.60
4962;DHT22;2496;52.468;13.342;2022-07-04T10:43:50;25.10;84.10
4962;DHT22;2496;52.468;13.342;2022-07-04T10:46:28;25.10;84.60
4962;DHT22;2496;52.468;13.342;2022-07-04T10:48:59;25.20;83.70
4962;DHT22;2496;52.468;13.342;2022-07-04T10:51:39;25.30;83.90
4962;DHT22;2496;52.468;13.342;2022-07-04T10:54:09;25.30;83.90
4962;DHT22;2496;52.468;13.342;2022-07-04T10:56:42;25.30;84.70
4962;DHT22;2496;52.468;13.342;2022-07-04T10:59:12;25.40;83.80
4962;DHT22;2496;52.468;13.342;2022-07-04T11:01:44;25.50;84.10
4962;DHT22;2496;52.468;13.342;2022-07-04T11:04:12;25.50;83.50
4962;DHT22;2496;52.468;13.342;2022-07-04T11:06:52;25.50;83.30
4962;DHT22;2496;52.468;13.342;2022-07-04T11:09:21;25.30;83.00
4962;DHT22;2496;52.468;13.342;2022-07-04T11:11:49;25.10;83.20
4962;DHT22;2496;52.468;13.342;2022-07-04T11:14:36;24.90;83.70
4962;DHT22;2496;52.468;13.342;2022-07-04T11:17:04;24.80;84.00
4962;DHT22;2496;52.468;13.342;2022-07-04T11:19:33;24.80;84.70
4962;DHT22;2496;52.468;13.342;2022-07-04T11:22:00;24.80;84.10
4962;DHT22;2496;52.468;13.342;2022-07-04T11:24:28;24.80;83.50
4962;DHT22;2496;52.468;13.342;2022-07-04T11:26:55;24.90;84.60
4962;DHT22;2496;52.468;13.342;2022-07-04T11:29:21;24.80;84.20
4962;DHT22;2496;52.468;13.342;2022-07-04T11:31:50;24.80;84.60
4962;DHT22;2496;52.468;13.342;2022-07-04T11:34:18;24.70;84.90
4962;DHT22;2496;52.468;13.342;2022-07-04T11:36:48;24.30;85.70
4962;DHT22;2496;52.468;13.342;2022-07-04T11:39:17;24.00;85.90
4962;DHT22;2496;52.468;13.342;2022-07-04T11:41:48;24.00;86.70
4962;DHT22;2496;52.468;13.342;2022-07-04T11:44:34;23.90;85.60
4962;DHT22;2496;52.468;13.342;2022-07-04T11:47:21;23.70;87.10
4962;DHT22;2496;52.468;13.342;2022-07-04T11:49:50;23.80;86.80
4962;DHT22;2496;52.468;13.342;2022-07-04T11:52:19;24.00;85.90
4962;DHT22;2496;52.468;13.342;2022-07-04T11:54:48;24.10;85.50
4962;DHT22;2496;52.468;13.342;2022-07-04T11:57:18;24.20;84.80
4962;DHT22;2496;52.468;13.342;2022-07-04T11:59:53;24.40;85.70
4962;DHT22;2496;52.468;13.342;2022-07-04T12:02:20;24.70;83.30
4962;DHT22;2496;52.468;13.342;2022-07-04T12:04:47;24.80;82.60
4962;DHT22;2496;52.468;13.342;2022-07-04T12:07:16;24.70;82.70
4962;DHT22;2496;52.468;13.342;2022-07-04T12:09:48;24.90;83.40
4962;DHT22;2496;52.468;13.342;2022-07-04T12:12:15;25.10;82.20
4962;DHT22;2496;52.468;13.342;2022-07-04T12:15:00;25.30;82.10
4962;DHT22;2496;52.468;13.342;2022-07-04T12:17:35;25.50;80.00
4962;DHT22;2496;52.468;13.342;2022-07-04T12:20:11;25.50;80.20
4962;DHT22;2496;52.468;13.342;2022-07-04T12:22:40;25.30;80.00
4962;DHT22;2496;52.468;13.342;2022-07-04T12:25:23;25.30;81.00
4962;DHT22;2496;52.468;13.342;2022-07-04T12:27:56;25.50;80.40
4962;DHT22;2496;52.468;13.342;2022-07-04T12:30:24;25.60;78.50
4962;DHT22;2496;52.468;13.342;2022-07-04T12:32:52;25.70;77.10
4962;DHT22;2496;52.468;13.342;2022-07-04T12:35:43;25.70;78.30
4962;DHT22;2496;52.468;13.342;2022-07-04T12:38:12;25.60;79.50
4962;DHT22;2496;52.468;13.342;2022-07-04T12:40:58;25.70;78.80
4962;DHT22;2496;52.468;13.342;2022-07-04T12:46:10;25.60;77.60
4962;DHT22;2496;52.468;13.342;2022-07-04T12:48:38;25.40;78.20
4962;DHT22;2496;52.468;13.342;2022-07-04T12:51:10;25.20;78.50
4962;DHT22;2496;52.468;13.342;2022-07-04T12:53:38;25.00;78.70
4962;DHT22;2496;52.468;13.342;2022-07-04T12:56:07;24.80;78.70
4962;DHT22;2496;52.468;13.342;2022-07-04T12:58:34;24.80;79.80
4962;DHT22;2496;52.468;13.342;2022-07-04T13:01:02;24.70;78.50
4962;DHT22;2496;52.468;13.342;2022-07-04T13:03:31;24.70;78.30
4962;DHT22;2496;52.468;13.342;2022-07-04T13:05:59;24.90;77.90
4962;DHT22;2496;52.468;13.342;2022-07-04T13:08:26;24.90;77.90
4962;DHT22;2496;52.468;13.342;2022-07-04T13:10:55;24.90;76.70
4962;DHT22;2496;52.468;13.342;2022-07-04T13:13:37;24.80;76.60
4962;DHT22;2496;52.468;13.342;2022-07-04T13:16:04;24.60;76.50
4962;DHT22;2496;52.468;13.342;2022-07-04T13:18:31;24.40;76.70
4962;DHT22;2496;52.468;13.342;2022-07-04T13:21:00;24.40;78.20
4962;DHT22;2496;52.468;13.342;2022-07-04T13:23:27;24.40;76.20
4962;DHT22;2496;52.468;13.342;2022-07-04T13:25:54;24.50;76.80
4962;DHT22;2496;52.468;13.342;2022-07-04T13:28:20;24.60;75.30
4962;DHT22;2496;52.468;13.342;2022-07-04T13:30:49;24.70;75.20
4962;DHT22;2496;52.468;13.342;2022-07-04T13:33:16;24.80;74.10
4962;DHT22;2496;52.468;13.342;2022-07-04T13:35:43;24.90;76.10
4962;DHT22;2496;52.468;13.342;2022-07-04T13:38:12;25.20;76.20
4962;DHT22;2496;52.468;13.342;2022-07-04T13:40:41;25.40;74.80
4962;DHT22;2496;52.468;13.342;2022-07-04T13:43:08;25.40;75.00
4962;DHT22;2496;52.468;13.342;2022-07-04T13:45:36;25.40;75.70
4962;DHT22;2496;52.468;13.342;2022-07-04T13:48:09;25.50;75.70
4962;DHT22;2496;52.468;13.342;2022-07-04T13:50:36;25.50;74.10
4962;DHT22;2496;52.468;13.342;2022-07-04T13:53:04;25.60;73.30
4962;DHT22;2496;52.468;13.342;2022-07-04T13:55:31;25.50;72.90
4962;DHT22;2496;52.468;13.342;2022-07-04T13:58:01;25.10;72.90
4962;DHT22;2496;52.468;13.342;2022-07-04T14:00:28;24.70;73.70
4962;DHT22;2496;52.468;13.342;2022-07-04T14:02:55;24.50;74.60
4962;DHT22;2496;52.468;13.342;2022-07-04T14:05:24;24.40;75.20
4962;DHT22;2496;52.468;13.342;2022-07-04T14:07:51;24.30;75.90
4962;DHT22;2496;52.468;13.342;2022-07-04T14:10:21;24.30;74.70
4962;DHT22;2496;52.468;13.342;2022-07-04T14:12:48;24.30;75.20
4962;DHT22;2496;52.468;13.342;2022-07-04T14:15:15;24.20;74.30
4962;DHT22;2496;52.468;13.342;2022-07-04T14:17:42;24.20;74.70
4962;DHT22;2496;52.468;13.342;2022-07-04T14:20:11;24.40;75.00
4962;DHT22;2496;52.468;13.342;2022-07-04T14:22:40;24.60;74.40
4962;DHT22;2496;52.468;13.342;2022-07-04T14:25:08;24.80;73.50
4962;DHT22;2496;52.468;13.342;2022-07-04T14:27:35;25.00;72.10
4962;DHT22;2496;52.468;13.342;2022-07-04T14:30:03;25.20;73.30
4962;DHT22;2496;52.468;13.342;2022-07-04T14:32:32;25.30;73.10
4962;DHT22;2496;52.468;13.342;2022-07-04T14:34:59;25.30;72.90
4962;DHT22;2496;52.468;13.342;2022-07-04T14:37:25;25.30;72.80
4962;DHT22;2496;52.468;13.342;2022-07-04T14:39:55;25.30;71.50
4962;DHT22;2496;52.468;13.342;2022-07-04T14:42:22;25.10;71.00
4962;DHT22;2496;52.468;13.342;2022-07-04T14:44:49;24.90;71.10
4962;DHT22;2496;52.468;13.342;2022-07-04T14:47:16;24.90;71.80
4962;DHT22;2496;52.468;13.342;2022-07-04T14:49:43;25.00;72.50
4962;DHT22;2496;52.468;13.342;2022-07-04T14:52:10;25.00;72.20
4962;DHT22;2496;52.468;13.342;2022-07-04T14:54:37;25.10;71.90
4962;DHT22;2496;52.468;13.342;2022-07-04T14:57:06;25.20;70.70
4962;DHT22;2496;52.468;13.342;2022-07-04T14:59:33;25.20;69.70
4962;DHT22;2496;52.468;13.342;2022-07-04T15:02:03;25.20;69.10
4962;DHT22;2496;52.468;13.342;2022-07-04T15:04:29;25.30;68.50
4962;DHT22;2496;52.468;13.342;2022-07-04T15:06:56;25.30;71.00
4962;DHT22;2496;52.468;13.342;2022-07-04T15:09:23;25.30;68.90
4962;DHT22;2496;52.468;13.342;2022-07-04T15:11:50;25.30;68.60
4962;DHT22;2496;52.468;13.342;2022-07-04T15:14:18;25.40;69.40
4962;DHT22;2496;52.468;13.342;2022-07-04T15:16:45;25.30;68.50
4962;DHT22;2496;52.468;13.342;2022-07-04T15:19:12;25.30;70.90
4962;DHT22;2496;52.468;13.342;2022-07-04T15:21:39;25.30;69.70
4962;DHT22;2496;52.468;13.342;2022-07-04T15:24:24;25.30;70.00
4962;DHT22;2496;52.468;13.342;2022-07-04T15:26:51;25.20;69.30
4962;DHT22;2496;52.468;13.342;2022-07-04T15:29:20;25.20;70.30
4962;DHT22;2496;52.468;13.342;2022-07-04T15:31:48;25.30;70.10
4962;DHT22;2496;52.468;13.342;2022-07-04T15:34:15;25.30;68.70
4962;DHT22;2496;52.468;13.342;2022-07-04T15:36:43;25.20;68.20
4962;DHT22;2496;52.468;13.342;2022-07-04T15:39:11;25.20;70.10
4962;DHT22;2496;52.468;13.342;2022-07-04T15:41:38;25.20;69.10
4962;DHT22;2496;52.468;13.342;2022-07-04T15:44:06;25.20;69.80
4962;DHT22;2496;52.468;13.342;2022-07-04T15:46:35;25.20;70.10
4962;DHT22;2496;52.468;13.342;2022-07-04T15:49:22;25.20;69.90
4962;DHT22;2496;52.468;13.342;2022-07-04T15:51:49;25.30;69.60
4962;DHT22;2496;52.468;13.342;2022-07-04T15:54:16;25.30;69.50
4962;DHT22;2496;52.468;13.342;2022-07-04T15:56:43;25.40;70.20
4962;DHT22;2496;52.468;13.342;2022-07-04T15:59:10;25.40;70.50
4962;DHT22;2496;52.468;13.342;2022-07-04T16:01:39;25.50;70.80